sensor_id;sensor_type;location;lat;lon;timestamp;pressure;altitude;pressure_sealevel;temperature;humidity
15880;BME280;61999;51.514;14.614;2022-12-05T00:01:47;100085.50;;;0.20;56.37
15880;BME280;61999;51.514;14.614;2022-12-05T00:04:15;100096.00;;;0.17;56.15
15880;BME280;61999;51.514;14.614;2022-12-05T00:06:43;100088.22;;;0.17;56.30
15880;BME280;61999;51.514;14.614;2022-12-05T00:09:13;100096.09;;;0.13;56.19
15880;BME280;61999;51.514;14.614;2022-12-05T00:11:43;100091.16;;;0.07;56.91
15880;BME280;61999;51.514;14.614;2022-12-05T00:14:12;100104.88;;;0.09;56.49
15880;BME280;61999;51.514;14.614;2022-12-05T00:16:42;100097.91;;;0.11;56.41
15880;BME280;61999;51.514;14.614;2022-12-05T00:19:13;100089.22;;;0.12;56.91
15880;BME280;61999;51.514;14.614;2022-12-05T00:21:42;100099.69;;;0.09;56.70
15880;BME280;61999;51.514;14.614;2022-12-05T00:24:14;100103.88;;;0.13;56.76
15880;BME280;61999;51.514;14.614;2022-12-05T00:26:42;100099.81;;;0.06;57.19
15880;BME280;61999;51.514;14.614;2022-12-05T00:29:11;100099.69;;;0.09;56.91
15880;BME280;61999;51.514;14.614;2022-12-05T00:31:39;100105.78;;;0.08;57.25
15880;BME280;61999;51.514;14.614;2022-12-05T00:34:09;100101.41;;;0.10;57.49
15880;BME280;61999;51.514;14.614;2022-12-05T00:36:37;100100.59;;;0.08;57.43
15880;BME280;61999;51.514;14.614;2022-12-05T00:39:10;100103.19;;;0.08;57.20
15880;BME280;61999;51.514;14.614;2022-12-05T00:41:41;100102.13;;;0.14;56.86
15880;BME280;61999;51.514;14.614;2022-12-05T00:44:11;100101.28;;;0.13;57.37
15880;BME280;61999;51.514;14.614;2022-12-05T00:46:40;100104.75;;;0.12;57.18
15880;BME280;61999;51.514;14.614;2022-12-05T00:49:11;100103.78;;;0.17;57.04
15880;BME280;61999;51.514;14.614;2022-12-05T00:51:41;100096.31;;;0.07;57.46
15880;BME280;61999;51.514;14.614;2022-12-05T00:54:13;100103.94;;;0.12;57.10
15880;BME280;61999;51.514;14.614;2022-12-05T00:56:42;100099.41;;;-0.07;57.82
15880;BME280;61999;51.514;14.614;2022-12-05T00:59:15;100096.31;;;0.07;57.83
15880;BME280;61999;51.514;14.614;2022-12-05T01:01:46;100097.00;;;0.12;57.40
15880;BME280;61999;51.514;14.614;2022-12-05T01:04:21;100104.53;;;0.19;57.16
15880;BME280;61999;51.514;14.614;2022-12-05T01:06:53;100092.38;;;0.21;56.88
15880;BME280;61999;51.514;14.614;2022-12-05T01:09:23;100100.97;;;0.23;57.40
15880;BME280;61999;51.514;14.614;2022-12-05T01:11:52;100102.56;;;0.27;57.10
15880;BME280;61999;51.514;14.614;2022-12-05T01:14:24;100098.19;;;0.29;56.71
15880;BME280;61999;51.514;14.614;2022-12-05T01:16:54;100102.56;;;0.27;56.72
15880;BME280;61999;51.514;14.614;2022-12-05T01:19:27;100097.38;;;0.27;56.83
15880;BME280;61999;51.514;14.614;2022-12-05T01:21:56;100092.28;;;0.24;57.06
15880;BME280;61999;51.514;14.614;2022-12-05T01:24:26;100097.25;;;0.30;57.12
15880;BME280;61999;51.514;14.614;2022-12-05T01:26:56;100094.09;;;0.22;57.62
15880;BME280;61999;51.514;14.614;2022-12-05T01:29:25;100094.88;;;0.24;57.04
15880;BME280;61999;51.514;14.614;2022-12-05T01:31:53;100093.06;;;0.26;57.63
15880;BME280;61999;51.514;14.614;2022-12-05T01:34:23;100097.38;;;0.27;57.04
15880;BME280;61999;51.514;14.614;2022-12-05T01:36:51;100094.97;;;0.21;57.34
15880;BME280;61999;51.514;14.614;2022-12-05T01:39:19;100096.50;;;0.28;57.21
15880;BME280;61999;51.514;14.614;2022-12-05T01:41:49;100098.97;;;0.31;57.54
15880;BME280;61999;51.514;14.614;2022-12-05T01:44:59;100103.34;;;0.29;57.28
15880;BME280;61999;51.514;14.614;2022-12-05T01:47:30;100104.47;;;0.22;57.63
15880;BME280;61999;51.514;14.614;2022-12-05T01:50:01;100102.56;;;0.27;57.19
15880;BME280;61999;51.514;14.614;2022-12-05T01:52:32;100105.94;;;0.29;57.00
15880;BME280;61999;51.514;14.614;2022-12-05T01:55:07;100097.38;;;0.27;56.88
15880;BME280;61999;51.514;14.614;2022-12-05T01:57:35;100100.66;;;0.32;56.91
15880;BME280;61999;51.514;14.614;2022-12-05T02:00:09;100101.38;;;0.35;56.64
15880;BME280;61999;51.514;14.614;2022-12-05T02:02:50;100098.75;;;0.37;57.08
15880;BME280;61999;51.514;14.614;2022-12-05T02:05:26;100094.41;;;0.37;56.61
15880;BME280;61999;51.514;14.614;2022-12-05T02:07:55;100089.47;;;0.30;56.87
15880;BME280;61999;51.514;14.614;2022-12-05T02:14:42;100089.00;;;0.19;57.50
15880;BME280;61999;51.514;14.614;2022-12-05T02:17:22;100091.53;;;0.20;57.75
15880;BME280;61999;51.514;14.614;2022-12-05T02:20:09;100092.38;;;0.21;57.74
15880;BME280;61999;51.514;14.614;2022-12-05T02:23:28;100094.97;;;0.21;57.60
15880;BME280;61999;51.514;14.614;2022-12-05T02:26:32;100101.06;;;0.20;57.02
15880;BME280;61999;51.514;14.614;2022-12-05T02:32:33;100092.81;;;0.08;57.94
15880;BME280;61999;51.514;14.614;2022-12-05T02:35:15;100094.78;;;0.02;58.88
15880;BME280;61999;51.514;14.614;2022-12-05T02:37:58;100098.84;;;0.09;58.01
15880;BME280;61999;51.514;14.614;2022-12-05T02:40:40;100088.44;;;0.10;57.64
15880;BME280;61999;51.514;14.614;2022-12-05T02:43:17;100095.16;;;0.16;57.89
15880;BME280;61999;51.514;14.614;2022-12-05T02:45:51;100086.03;;;0.04;58.18
15880;BME280;61999;51.514;14.614;2022-12-05T02:48:27;100086.59;;;0.14;57.75
15880;BME280;61999;51.514;14.614;2022-12-05T02:50:59;100090.16;;;0.10;57.57
15880;BME280;61999;51.514;14.614;2022-12-05T02:53:30;100092.81;;;0.08;57.73
15880;BME280;61999;51.514;14.614;2022-12-05T02:55:59;100091.28;;;0.03;57.96
15880;BME280;61999;51.514;14.614;2022-12-05T02:58:35;100091.41;;;-0.00;58.61
15880;BME280;61999;51.514;14.614;2022-12-05T03:01:06;100091.03;;;0.10;57.69
15880;BME280;61999;51.514;14.614;2022-12-05T03:03:36;100085.16;;;0.05;58.01
15880;BME280;61999;51.514;14.614;2022-12-05T03:06:09;100090.91;;;0.13;57.40
15880;BME280;61999;51.514;14.614;2022-12-05T03:12:50;100092.31;;;-0.01;58.30
15880;BME280;61999;51.514;14.614;2022-12-05T03:15:25;100094.03;;;-0.02;58.60
15880;BME280;61999;51.514;14.614;2022-12-05T03:17:59;100086.94;;;0.03;57.59
15880;BME280;61999;51.514;14.614;2022-12-05T03:20:36;100093.81;;;0.04;58.03
15880;BME280;61999;51.514;14.614;2022-12-05T03:23:11;100082.78;;;-0.01;58.41
15880;BME280;61999;51.514;14.614;2022-12-05T03:25:53;100084.97;;;0.10;57.85
15880;BME280;61999;51.514;14.614;2022-12-05T03:28:33;100080.59;;;0.12;57.53
15880;BME280;61999;51.514;14.614;2022-12-05T03:31:12;100086.91;;;0.05;58.38
15880;BME280;61999;51.514;14.614;2022-12-05T03:33:44;100083.56;;;0.01;57.93
15880;BME280;61999;51.514;14.614;2022-12-05T03:36:22;100087.75;;;0.05;58.32
15880;BME280;61999;51.514;14.614;2022-12-05T03:38:57;100088.38;;;0.12;57.78
15880;BME280;61999;51.514;14.614;2022-12-05T03:41:39;100094.28;;;0.15;57.50
15880;BME280;61999;51.514;14.614;2022-12-05T03:44:13;100096.09;;;0.13;57.51
15880;BME280;61999;51.514;14.614;2022-12-05T03:46:50;100096.22;;;0.10;58.23
15880;BME280;61999;51.514;14.614;2022-12-05T03:49:28;100096.50;;;0.01;58.43
15880;BME280;61999;51.514;14.614;2022-12-05T03:52:07;100091.97;;;0.08;57.68
15880;BME280;61999;51.514;14.614;2022-12-05T03:54:40;100092.94;;;0.05;58.23
15880;BME280;61999;51.514;14.614;2022-12-05T03:57:16;100092.81;;;0.08;57.56
15880;BME280;61999;51.514;14.614;2022-12-05T03:59:51;100089.44;;;0.06;57.83
15880;BME280;61999;51.514;14.614;2022-12-05T04:02:28;100102.56;;;0.02;58.29
15880;BME280;61999;51.514;14.614;2022-12-05T04:05:03;100098.22;;;0.02;57.91
15880;BME280;61999;51.514;14.614;2022-12-05T04:07:38;100098.44;;;-0.04;57.64
15880;BME280;61999;51.514;14.614;2022-12-05T04:10:14;100095.25;;;-0.12;58.48
15880;BME280;61999;51.514;14.614;2022-12-05T04:12:44;100096.22;;;-0.15;58.08
15880;BME280;61999;51.514;14.614;2022-12-05T04:19:10;100095.59;;;-0.21;57.90
15880;BME280;61999;51.514;14.614;2022-12-05T04:21:46;100101.50;;;-0.18;58.03
15880;BME280;61999;51.514;14.614;2022-12-05T04:24:19;100101.31;;;-0.13;58.00
15880;BME280;61999;51.514;14.614;2022-12-05T04:27:21;100102.34;;;-0.17;58.50
15880;BME280;61999;51.514;14.614;2022-12-05T04:38:06;100095.59;;;-0.21;58.75
15880;BME280;61999;51.514;14.614;2022-12-05T04:40:43;100101.44;;;-0.16;58.25
15880;BME280;61999;51.514;14.614;2022-12-05T04:46:55;100109.41;;;-0.22;58.35
15880;BME280;61999;51.514;14.614;2022-12-05T04:49:28;100116.00;;;-0.12;58.32
15880;BME280;61999;51.514;14.614;2022-12-05T04:52:06;100111.69;;;-0.13;57.95
15880;BME280;61999;51.514;14.614;2022-12-05T04:54:40;100105.63;;;-0.12;57.99
15880;BME280;61999;51.514;14.614;2022-12-05T04:57:19;100108.53;;;-0.21;58.28
15880;BME280;61999;51.514;14.614;2022-12-05T04:59:48;100106.91;;;-0.24;58.25
15880;BME280;61999;51.514;14.614;2022-12-05T05:02:22;100102.75;;;-0.30;59.08
15880;BME280;61999;51.514;14.614;2022-12-05T05:04:55;100114.91;;;-0.32;58.50
15880;BME280;61999;51.514;14.614;2022-12-05T05:07:24;100119.03;;;-0.26;58.37
15880;BME280;61999;51.514;14.614;2022-12-05T05:10:21;100117.16;;;-0.21;58.75
15880;BME280;61999;51.514;14.614;2022-12-05T05:17:00;100109.72;;;-0.32;59.07
15880;BME280;61999;51.514;14.614;2022-12-05T05:19:29;100118.09;;;-0.23;58.40
15880;BME280;61999;51.514;14.614;2022-12-05T05:21:57;100107.53;;;-0.17;58.09
15880;BME280;61999;51.514;14.614;2022-12-05T05:24:26;100107.53;;;-0.17;57.85
15880;BME280;61999;51.514;14.614;2022-12-05T05:26:54;100109.53;;;-0.25;58.63
15880;BME280;61999;51.514;14.614;2022-12-05T05:29:23;100107.50;;;-0.16;58.80
15880;BME280;61999;51.514;14.614;2022-12-05T05:31:51;100105.53;;;-0.09;58.10
15880;BME280;61999;51.514;14.614;2022-12-05T05:34:20;100117.34;;;-0.02;58.47
15880;BME280;61999;51.514;14.614;2022-12-05T05:36:51;100116.41;;;0.01;58.42
15880;BME280;61999;51.514;14.614;2022-12-05T05:39:19;100107.69;;;0.03;58.21
15880;BME280;61999;51.514;14.614;2022-12-05T05:41:47;100119.59;;;0.09;58.01
15880;BME280;61999;51.514;14.614;2022-12-05T05:44:15;100117.00;;;0.09;58.13
15880;BME280;61999;51.514;14.614;2022-12-05T05:46:43;100110.91;;;0.10;58.13
15880;BME280;61999;51.514;14.614;2022-12-05T05:49:11;100114.28;;;0.12;57.99
15880;BME280;61999;51.514;14.614;2022-12-05T05:51:40;100127.13;;;0.15;57.63
15880;BME280;61999;51.514;14.614;2022-12-05T05:54:09;100124.50;;;0.17;57.47
15880;BME280;61999;51.514;14.614;2022-12-05T05:56:39;100127.09;;;0.17;57.82
15880;BME280;61999;51.514;14.614;2022-12-05T05:59:08;100130.69;;;0.12;57.33
15880;BME280;61999;51.514;14.614;2022-12-05T06:01:36;100135.75;;;0.15;57.34
15880;BME280;61999;51.514;14.614;2022-12-05T06:04:04;100123.72;;;0.14;57.50
15880;BME280;61999;51.514;14.614;2022-12-05T06:06:33;100121.91;;;0.17;57.94
15880;BME280;61999;51.514;14.614;2022-12-05T06:09:05;100129.59;;;0.20;57.61
15880;BME280;61999;51.514;14.614;2022-12-05T06:11:33;100128.69;;;0.21;57.52
15880;BME280;61999;51.514;14.614;2022-12-05T06:14:10;100139.03;;;0.21;57.81
15880;BME280;61999;51.514;14.614;2022-12-05T06:16:38;100125.38;;;0.15;57.47
15880;BME280;61999;51.514;14.614;2022-12-05T06:19:06;100136.56;;;0.18;58.05
15880;BME280;61999;51.514;14.614;2022-12-05T06:21:34;100126.88;;;0.23;57.76
15880;BME280;61999;51.514;14.614;2022-12-05T06:24:04;100128.78;;;0.18;57.67
15880;BME280;61999;51.514;14.614;2022-12-05T06:26:32;100130.47;;;0.19;58.03
15880;BME280;61999;51.514;14.614;2022-12-05T06:29:00;100134.06;;;0.14;57.90
15880;BME280;61999;51.514;14.614;2022-12-05T06:31:28;100132.41;;;0.13;57.88
15880;BME280;61999;51.514;14.614;2022-12-05T06:34:00;100134.22;;;0.10;58.24
15880;BME280;61999;51.514;14.614;2022-12-05T06:36:29;100145.34;;;0.13;58.14
15880;BME280;61999;51.514;14.614;2022-12-05T06:38:58;100147.03;;;0.14;57.79
15880;BME280;61999;51.514;14.614;2022-12-05T06:41:27;100144.44;;;0.14;57.92
15880;BME280;61999;51.514;14.614;2022-12-05T06:43:57;100152.44;;;0.08;58.45
15880;BME280;61999;51.514;14.614;2022-12-05T06:46:27;100145.59;;;0.06;58.04
15880;BME280;61999;51.514;14.614;2022-12-05T06:48:56;100153.25;;;0.10;58.43
15880;BME280;61999;51.514;14.614;2022-12-05T06:51:24;100156.72;;;0.09;57.93
15880;BME280;61999;51.514;14.614;2022-12-05T06:53:54;100155.94;;;0.07;58.43
15880;BME280;61999;51.514;14.614;2022-12-05T06:56:22;100160.09;;;0.11;58.18
15880;BME280;61999;51.514;14.614;2022-12-05T06:58:52;100165.19;;;0.14;57.79
15880;BME280;61999;51.514;14.614;2022-12-05T07:01:23;100166.97;;;0.12;58.20
15880;BME280;61999;51.514;14.614;2022-12-05T07:04:12;100171.41;;;0.09;58.36
15880;BME280;61999;51.514;14.614;2022-12-05T07:06:43;100167.03;;;0.11;58.34
15880;BME280;61999;51.514;14.614;2022-12-05T07:09:15;100173.75;;;0.17;58.24
15880;BME280;61999;51.514;14.614;2022-12-05T07:11:46;100170.16;;;0.21;58.24
15880;BME280;61999;51.514;14.614;2022-12-05T07:14:17;100178.94;;;0.17;58.94
15880;BME280;61999;51.514;14.614;2022-12-05T07:17:05;100177.91;;;0.22;58.70
15880;BME280;61999;51.514;14.614;2022-12-05T07:19:33;100182.41;;;0.15;58.32
15880;BME280;61999;51.514;14.614;2022-12-05T07:22:01;100190.00;;;0.22;57.86
15880;BME280;61999;51.514;14.614;2022-12-05T07:24:29;100185.53;;;0.27;57.66
15880;BME280;61999;51.514;14.614;2022-12-05T07:26:57;100189.00;;;0.26;58.01
15880;BME280;61999;51.514;14.614;2022-12-05T07:29:27;100188.31;;;0.21;58.08
15880;BME280;61999;51.514;14.614;2022-12-05T07:31:55;100195.97;;;0.24;57.94
15880;BME280;61999;51.514;14.614;2022-12-05T07:34:23;100189.84;;;0.26;58.05
15880;BME280;61999;51.514;14.614;2022-12-05T07:36:51;100197.63;;;0.26;57.98
15880;BME280;61999;51.514;14.614;2022-12-05T07:39:18;100195.28;;;0.19;58.32
15880;BME280;61999;51.514;14.614;2022-12-05T07:41:47;100199.47;;;0.23;58.50
15880;BME280;61999;51.514;14.614;2022-12-05T07:44:15;100202.69;;;0.31;58.22
15880;BME280;61999;51.514;14.614;2022-12-05T07:46:44;100195.78;;;0.30;58.05
15880;BME280;61999;51.514;14.614;2022-12-05T07:49:12;100193.91;;;0.35;58.18
15880;BME280;61999;51.514;14.614;2022-12-05T07:51:41;100200.69;;;0.39;58.31
15880;BME280;61999;51.514;14.614;2022-12-05T07:54:09;100200.56;;;0.42;57.81
15880;BME280;61999;51.514;14.614;2022-12-05T07:56:37;100197.97;;;0.42;58.12
15880;BME280;61999;51.514;14.614;2022-12-05T07:59:07;100192.72;;;0.44;58.02
15880;BME280;61999;51.514;14.614;2022-12-05T08:01:35;100200.41;;;0.47;58.34
15880;BME280;61999;51.514;14.614;2022-12-05T08:04:05;100190.13;;;0.44;57.99
15880;BME280;61999;51.514;14.614;2022-12-05T08:06:35;100193.97;;;0.33;58.18
15880;BME280;61999;51.514;14.614;2022-12-05T08:09:03;100194.59;;;0.40;58.22
15880;BME280;61999;51.514;14.614;2022-12-05T08:11:32;100193.56;;;0.44;58.01
15880;BME280;61999;51.514;14.614;2022-12-05T08:14:03;100188.31;;;0.47;58.27
15880;BME280;61999;51.514;14.614;2022-12-05T08:16:33;100196.97;;;0.46;58.40
15880;BME280;61999;51.514;14.614;2022-12-05T08:19:05;100189.13;;;0.48;58.02
15880;BME280;61999;51.514;14.614;2022-12-05T08:21:34;100196.75;;;0.52;58.51
15880;BME280;61999;51.514;14.614;2022-12-05T08:24:58;100189.06;;;0.49;58.26
15880;BME280;61999;51.514;14.614;2022-12-05T08:32:12;100192.72;;;0.44;58.41
15880;BME280;61999;51.514;14.614;2022-12-05T08:34:41;100196.97;;;0.46;58.39
15880;BME280;61999;51.514;14.614;2022-12-05T08:37:09;100201.78;;;0.57;58.91
15880;BME280;61999;51.514;14.614;2022-12-05T08:39:37;100204.00;;;0.68;58.21
15880;BME280;61999;51.514;14.614;2022-12-05T08:42:06;100203.31;;;0.63;58.51
15880;BME280;61999;51.514;14.614;2022-12-05T08:44:34;100202.59;;;0.59;58.85
15880;BME280;61999;51.514;14.614;2022-12-05T08:47:02;100211.13;;;0.61;58.38
15880;BME280;61999;51.514;14.614;2022-12-05T08:49:30;100208.38;;;0.66;58.27
15880;BME280;61999;51.514;14.614;2022-12-05T08:51:59;100214.59;;;0.62;58.40
15880;BME280;61999;51.514;14.614;2022-12-05T08:54:27;100209.22;;;0.66;58.59
15880;BME280;61999;51.514;14.614;2022-12-05T08:56:55;100222.38;;;0.62;58.63
15880;BME280;61999;51.514;14.614;2022-12-05T08:59:25;100224.97;;;0.62;58.67
15880;BME280;61999;51.514;14.614;2022-12-05T09:01:53;100222.38;;;0.62;58.15
15880;BME280;61999;51.514;14.614;2022-12-05T09:04:21;100224.06;;;0.63;58.33
15880;BME280;61999;51.514;14.614;2022-12-05T09:10:57;100220.41;;;0.43;58.98
15880;BME280;61999;51.514;14.614;2022-12-05T09:13:25;100218.34;;;0.53;59.06
15880;BME280;61999;51.514;14.614;2022-12-05T09:15:53;100225.06;;;0.58;58.23
15880;BME280;61999;51.514;14.614;2022-12-05T09:18:21;100220.56;;;0.64;58.29
15880;BME280;61999;51.514;14.614;2022-12-05T09:20:49;100218.03;;;0.62;58.39
15880;BME280;61999;51.514;14.614;2022-12-05T09:23:17;100216.97;;;0.68;58.37
15880;BME280;61999;51.514;14.614;2022-12-05T09:25:53;100216.09;;;0.67;58.23
15880;BME280;61999;51.514;14.614;2022-12-05T09:28:25;100212.56;;;0.70;58.43
15880;BME280;61999;51.514;14.614;2022-12-05T09:30:57;100206.38;;;0.74;58.32
15880;BME280;61999;51.514;14.614;2022-12-05T09:33:27;100215.84;;;0.75;58.69
15880;BME280;61999;51.514;14.614;2022-12-05T09:35:55;100209.53;;;0.82;58.34
15880;BME280;61999;51.514;14.614;2022-12-05T09:38:24;100215.50;;;0.84;58.15
15880;BME280;61999;51.514;14.614;2022-12-05T09:41:07;100207.72;;;0.84;58.01
15880;BME280;61999;51.514;14.614;2022-12-05T09:43:50;100209.53;;;0.82;58.14
15880;BME280;61999;51.514;14.614;2022-12-05T09:46:34;100206.25;;;0.77;57.80
15880;BME280;61999;51.514;14.614;2022-12-05T09:49:10;100214.84;;;0.79;57.80
15880;BME280;61999;51.514;14.614;2022-12-05T09:51:44;100213.13;;;0.78;57.83
15880;BME280;61999;51.514;14.614;2022-12-05T09:54:17;100215.03;;;0.73;58.33
15880;BME280;61999;51.514;14.614;2022-12-05T09:56:49;100214.19;;;0.72;58.30
15880;BME280;61999;51.514;14.614;2022-12-05T09:59:20;100216.78;;;0.72;58.05
15880;BME280;61999;51.514;14.614;2022-12-05T10:01:56;100215.16;;;0.70;57.96
15880;BME280;61999;51.514;14.614;2022-12-05T10:04:51;100219.38;;;0.72;57.83
15880;BME280;61999;51.514;14.614;2022-12-05T10:07:33;100216.84;;;0.71;58.15
15880;BME280;61999;51.514;14.614;2022-12-05T10:10:23;100208.25;;;0.70;58.21
15880;BME280;61999;51.514;14.614;2022-12-05T10:13:23;100216.09;;;0.67;58.33
15880;BME280;61999;51.514;14.614;2022-12-05T10:16:01;100212.50;;;0.71;58.58
15880;BME280;61999;51.514;14.614;2022-12-05T10:18:38;100208.91;;;0.75;58.02
15880;BME280;61999;51.514;14.614;2022-12-05T10:21:15;100211.38;;;0.78;58.14
15880;BME280;61999;51.514;14.614;2022-12-05T10:23:53;100204.56;;;0.76;58.14
15880;BME280;61999;51.514;14.614;2022-12-05T10:26:28;100202.88;;;0.75;58.53
15880;BME280;61999;51.514;14.614;2022-12-05T10:32:02;100199.16;;;0.82;58.61
15880;BME280;61999;51.514;14.614;2022-12-05T10:34:37;100204.16;;;0.87;58.64
15880;BME280;61999;51.514;14.614;2022-12-05T10:37:13;100206.53;;;0.93;58.36
15880;BME280;61999;51.514;14.614;2022-12-05T10:39:42;100209.88;;;0.96;58.37
15880;BME280;61999;51.514;14.614;2022-12-05T10:42:15;100217.47;;;1.01;58.26
15880;BME280;61999;51.514;14.614;2022-12-05T10:44:44;100211.56;;;0.97;58.35
15880;BME280;61999;51.514;14.614;2022-12-05T10:47:14;100208.84;;;1.00;58.28
15880;BME280;61999;51.514;14.614;2022-12-05T10:49:42;100211.41;;;1.02;58.43
15880;BME280;61999;51.514;14.614;2022-12-05T10:52:13;100212.13;;;1.05;58.37
15880;BME280;61999;51.514;14.614;2022-12-05T10:54:46;100211.22;;;1.07;58.35
15880;BME280;61999;51.514;14.614;2022-12-05T10:57:22;100212.13;;;1.05;58.17
15880;BME280;61999;51.514;14.614;2022-12-05T10:59:52;100214.66;;;1.07;58.42
15880;BME280;61999;51.514;14.614;2022-12-05T11:02:27;100212.00;;;1.09;58.65
15880;BME280;61999;51.514;14.614;2022-12-05T11:05:26;100209.34;;;1.10;58.32
15880;BME280;61999;51.514;14.614;2022-12-05T11:07:57;100208.50;;;1.10;58.72
15880;BME280;61999;51.514;14.614;2022-12-05T11:10:35;100207.50;;;1.14;58.76
15880;BME280;61999;51.514;14.614;2022-12-05T11:13:15;100212.56;;;1.17;58.44
15880;BME280;61999;51.514;14.614;2022-12-05T11:15:45;100216.00;;;1.17;59.02
15880;BME280;61999;51.514;14.614;2022-12-05T11:18:26;100210.66;;;1.22;58.77
15880;BME280;61999;51.514;14.614;2022-12-05T11:20:56;100208.91;;;1.22;58.34
15880;BME280;61999;51.514;14.614;2022-12-05T11:23:34;100195.06;;;1.22;58.76
15880;BME280;61999;51.514;14.614;2022-12-05T11:26:17;100204.56;;;1.23;58.70
15880;BME280;61999;51.514;14.614;2022-12-05T11:28:46;100199.34;;;1.23;58.61
15880;BME280;61999;51.514;14.614;2022-12-05T11:31:26;100193.13;;;1.27;58.64
15880;BME280;61999;51.514;14.614;2022-12-05T11:34:10;100201.84;;;1.26;58.47
15880;BME280;61999;51.514;14.614;2022-12-05T11:36:50;100199.25;;;1.26;58.76
15880;BME280;61999;51.514;14.614;2022-12-05T11:39:19;100199.19;;;1.27;58.67
15880;BME280;61999;51.514;14.614;2022-12-05T11:42:20;100192.16;;;1.30;58.35
15880;BME280;61999;51.514;14.614;2022-12-05T11:45:24;100185.28;;;1.28;58.11
15880;BME280;61999;51.514;14.614;2022-12-05T11:48:14;100189.56;;;1.30;58.58
15880;BME280;61999;51.514;14.614;2022-12-05T11:51:01;100185.22;;;1.30;58.45
15880;BME280;61999;51.514;14.614;2022-12-05T11:53:54;100188.72;;;1.29;58.53
15880;BME280;61999;51.514;14.614;2022-12-05T11:56:36;100186.94;;;1.31;58.43
15880;BME280;61999;51.514;14.614;2022-12-05T12:02:50;100185.13;;;1.33;58.40
15880;BME280;61999;51.514;14.614;2022-12-05T12:05:31;100185.13;;;1.33;58.80
15880;BME280;61999;51.514;14.614;2022-12-05T12:08:18;100183.28;;;1.35;58.50
15880;BME280;61999;51.514;14.614;2022-12-05T12:10:59;100176.28;;;1.37;58.47
15880;BME280;61999;51.514;14.614;2022-12-05T12:13:46;100181.50;;;1.37;58.43
15880;BME280;61999;51.514;14.614;2022-12-05T12:16:27;100178.81;;;1.39;58.72
15880;BME280;61999;51.514;14.614;2022-12-05T12:19:46;100182.22;;;1.41;58.72
15880;BME280;61999;51.514;14.614;2022-12-05T12:22:33;100179.56;;;1.42;58.83
15880;BME280;61999;51.514;14.614;2022-12-05T12:25:22;100171.78;;;1.42;58.64
15880;BME280;61999;51.514;14.614;2022-12-05T12:28:13;100169.94;;;1.44;58.49
15880;BME280;61999;51.514;14.614;2022-12-05T12:31:07;100176.00;;;1.45;58.49
15880;BME280;61999;51.514;14.614;2022-12-05T12:33:45;100184.50;;;1.48;58.82
15880;BME280;61999;51.514;14.614;2022-12-05T12:36:25;100176.66;;;1.50;58.94
15880;BME280;61999;51.514;14.614;2022-12-05T12:39:12;100179.91;;;1.55;58.79
15880;BME280;61999;51.514;14.614;2022-12-05T12:42:20;100170.22;;;1.59;59.02
15880;BME280;61999;51.514;14.614;2022-12-05T12:45:28;100176.91;;;1.66;59.15
15880;BME280;61999;51.514;14.614;2022-12-05T12:48:13;100176.63;;;1.72;58.81
15880;BME280;61999;51.514;14.614;2022-12-05T12:50:50;100172.09;;;1.77;59.17
15880;BME280;61999;51.514;14.614;2022-12-05T12:53:46;100166.78;;;1.80;58.76
15880;BME280;61999;51.514;14.614;2022-12-05T12:56:35;100176.25;;;1.81;58.84
15880;BME280;61999;51.514;14.614;2022-12-05T12:59:26;100178.09;;;1.79;58.64
15880;BME280;61999;51.514;14.614;2022-12-05T13:02:10;100184.13;;;1.80;58.36
15880;BME280;61999;51.514;14.614;2022-12-05T13:04:48;100175.50;;;1.79;58.56
15880;BME280;61999;51.514;14.614;2022-12-05T13:07:25;100178.09;;;1.79;58.51
15880;BME280;61999;51.514;14.614;2022-12-05T13:10:04;100183.59;;;1.71;58.56
15880;BME280;61999;51.514;14.614;2022-12-05T13:12:38;100189.72;;;1.70;58.53
15880;BME280;61999;51.514;14.614;2022-12-05T13:15:15;100197.47;;;1.04;60.70
15880;BME280;61999;51.514;14.614;2022-12-05T13:17:47;100182.09;;;1.44;59.46
15880;BME280;61999;51.514;14.614;2022-12-05T13:20:19;100179.88;;;1.57;59.36
15880;BME280;61999;51.514;14.614;2022-12-05T13:22:50;100173.59;;;1.62;59.08
15880;BME280;61999;51.514;14.614;2022-12-05T13:25:26;100181.25;;;1.65;59.01
15880;BME280;61999;51.514;14.614;2022-12-05T13:28:00;100180.41;;;1.65;58.36
15880;BME280;61999;51.514;14.614;2022-12-05T13:30:32;100176.91;;;1.66;58.58
15880;BME280;61999;51.514;14.614;2022-12-05T13:33:25;100176.91;;;1.66;58.23
15880;BME280;61999;51.514;14.614;2022-12-05T13:36:03;100185.59;;;1.65;58.07
15880;BME280;61999;51.514;14.614;2022-12-05T13:38:57;100182.22;;;1.63;58.46
15880;BME280;61999;51.514;14.614;2022-12-05T13:41:46;100185.94;;;1.56;58.61
15880;BME280;61999;51.514;14.614;2022-12-05T13:44:40;100189.47;;;1.55;58.47
15880;BME280;61999;51.514;14.614;2022-12-05T13:47:30;100185.09;;;1.55;58.49
15880;BME280;61999;51.514;14.614;2022-12-05T13:50:08;100191.16;;;1.56;58.51
15880;BME280;61999;51.514;14.614;2022-12-05T13:52:45;100182.59;;;1.54;58.58
15880;BME280;61999;51.514;14.614;2022-12-05T13:55:25;100186.88;;;1.55;58.49
15880;BME280;61999;51.514;14.614;2022-12-05T13:57:58;100189.47;;;1.55;58.83
15880;BME280;61999;51.514;14.614;2022-12-05T14:00:33;100195.56;;;1.54;58.35
15880;BME280;61999;51.514;14.614;2022-12-05T14:03:57;100188.88;;;1.48;58.33
15880;BME280;61999;51.514;14.614;2022-12-05T14:06:55;100186.56;;;1.40;58.75
15880;BME280;61999;51.514;14.614;2022-12-05T14:09:30;100182.88;;;1.46;58.86
15880;BME280;61999;51.514;14.614;2022-12-05T14:12:30;100186.31;;;1.46;58.90
15880;BME280;61999;51.514;14.614;2022-12-05T14:15:31;100193.44;;;1.41;58.72
15880;BME280;61999;51.514;14.614;2022-12-05T14:18:08;100190.00;;;1.41;58.75